createdAt,value
2022-09-18T00:01:50.502Z,49.40
2022-09-18T00:04:21.189Z,49.10
2022-09-18T00:06:51.558Z,49.10
2022-09-18T00:09:22.224Z,48.90
2022-09-18T00:11:52.864Z,48.70
2022-09-18T00:14:25.677Z,48.70
2022-09-18T00:16:56.139Z,48.40
2022-09-18T00:19:26.247Z,48.40
2022-09-18T00:21:56.403Z,48.80
2022-09-18T00:24:26.578Z,48.10
2022-09-18T00:26:56.685Z,47.80
2022-09-18T00:29:26.839Z,47.80
2022-09-18T00:31:57.001Z,47.80
2022-09-18T00:34:27.141Z,48.00
2022-09-18T00:36:57.394Z,48.10
2022-09-18T00:39:27.611Z,48.20
2022-09-18T00:41:57.739Z,48.30
2022-09-18T00:44:38.169Z,48.40
2022-09-18T00:47:14.654Z,48.40
2022-09-18T00:49:49.442Z,48.60
2022-09-18T00:52:22.848Z,48.60
2022-09-18T00:54:58.702Z,48.70
2022-09-18T00:57:34.591Z,48.80
2022-09-18T01:00:10.337Z,48.80
2022-09-18T01:02:44.726Z,48.90
2022-09-18T01:05:17.463Z,49.00
2022-09-18T01:08:01.100Z,49.10
2022-09-18T01:10:52.714Z,49.10
2022-09-18T01:13:28.641Z,49.10
2022-09-18T01:16:16.778Z,49.20
2022-09-18T01:19:13.564Z,49.30
2022-09-18T01:22:14.316Z,49.40
2022-09-18T01:25:26.987Z,49.40
2022-09-18T01:28:47.932Z,49.50
2022-09-18T01:31:30.566Z,49.50
2022-09-18T01:34:20.281Z,49.60
2022-09-18T01:36:56.280Z,49.60
2022-09-18T01:39:33.169Z,49.60
2022-09-18T01:42:07.217Z,49.70
2022-09-18T01:44:39.971Z,49.80
2022-09-18T01:47:15.056Z,49.70
2022-09-18T01:49:49.668Z,49.70
2022-09-18T01:52:27.118Z,49.80
2022-09-18T01:55:00.182Z,49.80
2022-09-18T01:57:59.819Z,49.80
2022-09-18T02:00:32.071Z,49.80
2022-09-18T02:03:24.743Z,50.10
2022-09-18T02:06:00.206Z,50.20
2022-09-18T02:08:41.136Z,50.30
2022-09-18T02:11:16.901Z,50.40
2022-09-18T02:13:55.952Z,50.40
2022-09-18T02:17:01.232Z,50.50
2022-09-18T02:19:44.725Z,50.60
2022-09-18T02:22:20.142Z,50.70
2022-09-18T02:24:53.902Z,50.70
2022-09-18T02:27:27.953Z,50.70
2022-09-18T02:29:58.563Z,50.70
2022-09-18T02:32:28.736Z,50.70
2022-09-18T02:34:59.234Z,50.80
2022-09-18T02:38:00.054Z,50.80
2022-09-18T02:40:50.084Z,50.80
2022-09-18T02:44:24.513Z,50.90
2022-09-18T02:47:18.033Z,50.90
2022-09-18T02:50:06.459Z,50.90
2022-09-18T02:52:50.116Z,51.00
2022-09-18T02:55:44.753Z,51.00
2022-09-18T02:58:24.052Z,50.90
2022-09-18T03:00:55.577Z,51.00
2022-09-18T03:03:30.539Z,51.10
2022-09-18T03:06:01.244Z,51.10
2022-09-18T03:08:31.430Z,51.10
2022-09-18T03:11:01.678Z,51.10
2022-09-18T03:13:31.914Z,51.10
2022-09-18T03:16:02.285Z,51.10
2022-09-18T03:18:32.597Z,51.10
2022-09-18T03:21:06.669Z,51.10
2022-09-18T03:23:36.819Z,51.10
2022-09-18T03:26:07.016Z,51.10
2022-09-18T03:28:37.256Z,51.10
2022-09-18T03:31:07.821Z,51.20
2022-09-18T03:33:38.101Z,51.20
2022-09-18T03:36:10.122Z,51.20
2022-09-18T03:38:41.639Z,51.20
2022-09-18T03:41:12.414Z,51.20
2022-09-18T03:43:42.581Z,51.20
2022-09-18T03:46:12.927Z,51.20
2022-09-18T03:48:43.197Z,51.30
2022-09-18T03:51:13.330Z,51.30
2022-09-18T03:53:43.551Z,51.30
2022-09-18T03:56:14.226Z,51.30
2022-09-18T03:58:44.909Z,51.30
2022-09-18T04:01:17.709Z,51.40
2022-09-18T04:03:48.566Z,51.30
2022-09-18T04:06:18.957Z,51.40
2022-09-18T04:08:49.058Z,51.40
2022-09-18T04:11:19.253Z,51.40
2022-09-18T04:13:49.514Z,51.40
2022-09-18T04:16:19.856Z,51.40
2022-09-18T04:18:50.511Z,51.40
2022-09-18T04:21:21.548Z,51.50
2022-09-18T04:23:51.681Z,51.50
2022-09-18T04:26:21.948Z,51.50
2022-09-18T04:28:52.033Z,51.50
2022-09-18T04:31:22.663Z,51.50
2022-09-18T04:33:52.840Z,51.60
2022-09-18T04:36:23.041Z,51.50
2022-09-18T04:38:53.134Z,51.50
2022-09-18T04:41:23.477Z,51.60
2022-09-18T04:43:53.648Z,51.70
2022-09-18T04:46:24.054Z,51.60
2022-09-18T04:48:55.792Z,51.60
2022-09-18T04:51:26.031Z,51.60
2022-09-18T04:53:56.118Z,52.50
2022-09-18T04:56:26.524Z,51.80
2022-09-18T04:58:56.705Z,51.80
2022-09-18T05:01:27.705Z,51.80
2022-09-18T05:03:57.900Z,52.00
2022-09-18T05:06:28.071Z,52.10
2022-09-18T05:08:59.620Z,52.30
2022-09-18T05:11:29.793Z,52.20
2022-09-18T05:13:59.979Z,52.40
2022-09-18T05:16:30.405Z,52.30
2022-09-18T05:19:00.534Z,52.10
2022-09-18T05:21:30.673Z,52.10
2022-09-18T05:24:00.813Z,52.10
2022-09-18T05:26:32.363Z,52.10
2022-09-18T05:29:02.679Z,52.00
2022-09-18T05:31:33.694Z,52.00
2022-09-18T05:34:04.094Z,52.10
2022-09-18T05:36:34.387Z,52.10
2022-09-18T05:39:04.862Z,52.10
2022-09-18T05:41:35.379Z,52.10
2022-09-18T05:44:06.106Z,52.20
2022-09-18T05:46:36.578Z,52.10
2022-09-18T05:49:08.340Z,52.10
2022-09-18T05:51:38.555Z,52.80
2022-09-18T05:54:09.399Z,52.10
2022-09-18T05:56:39.740Z,52.10
2022-09-18T05:59:09.935Z,52.10
2022-09-18T06:01:44.857Z,52.10
2022-09-18T06:04:17.106Z,52.10
2022-09-18T06:06:47.191Z,52.10
2022-09-18T06:09:17.731Z,52.10
2022-09-18T06:11:47.905Z,52.20
2022-09-18T06:14:18.554Z,52.20
2022-09-18T06:16:48.704Z,52.10
2022-09-18T06:19:18.945Z,52.10
2022-09-18T06:21:49.047Z,52.30
2022-09-18T06:24:19.223Z,52.30
2022-09-18T06:26:51.940Z,52.20
2022-09-18T06:29:22.668Z,52.30
2022-09-18T06:31:53.134Z,52.30
2022-09-18T06:34:23.263Z,52.30
2022-09-18T06:36:53.647Z,52.30
2022-09-18T06:39:23.791Z,52.30
2022-09-18T06:41:53.987Z,52.30
2022-09-18T06:44:24.200Z,52.40
2022-09-18T06:46:54.395Z,52.30
2022-09-18T06:49:24.613Z,52.30
2022-09-18T06:51:54.713Z,52.40
2022-09-18T06:54:24.957Z,52.30
2022-09-18T06:56:55.135Z,52.50
2022-09-18T06:59:25.335Z,52.60
2022-09-18T07:01:55.629Z,52.60
2022-09-18T07:04:25.908Z,52.70
2022-09-18T07:06:56.127Z,53.40
2022-09-18T07:09:26.335Z,52.70
2022-09-18T07:11:56.874Z,52.60
2022-09-18T07:14:27.075Z,52.80
2022-09-18T07:16:57.316Z,52.70
2022-09-18T07:19:27.548Z,52.80
2022-09-18T07:21:57.722Z,53.50
2022-09-18T07:24:28.157Z,52.70
2022-09-18T07:26:58.330Z,52.90
2022-09-18T07:29:28.630Z,52.80
2022-09-18T07:31:58.873Z,52.80
2022-09-18T07:34:29.129Z,53.10
2022-09-18T07:36:59.238Z,53.10
2022-09-18T07:39:29.576Z,53.20
2022-09-18T07:41:59.693Z,54.00
2022-09-18T07:44:31.651Z,53.30
2022-09-18T07:47:01.992Z,53.80
2022-09-18T07:49:33.342Z,53.50
2022-09-18T07:52:04.001Z,53.60
2022-09-18T07:54:34.667Z,53.80
2022-09-18T07:57:05.089Z,53.70
2022-09-18T07:59:35.344Z,54.00
2022-09-18T08:02:07.140Z,54.00
2022-09-18T08:04:37.387Z,54.30
2022-09-18T08:07:07.691Z,54.50
2022-09-18T08:09:37.820Z,54.30
2022-09-18T08:12:08.087Z,54.80
2022-09-18T08:14:38.182Z,54.70
2022-09-18T08:17:08.440Z,55.00
2022-09-18T08:19:38.690Z,55.00
2022-09-18T08:22:09.183Z,54.90
2022-09-18T08:24:39.375Z,55.30
2022-09-18T08:27:09.912Z,55.10
2022-09-18T08:29:40.069Z,55.50
2022-09-18T08:32:10.321Z,55.50
2022-09-18T08:34:40.453Z,55.60
2022-09-18T08:37:10.684Z,55.70
2022-09-18T08:39:40.788Z,55.60
2022-09-18T08:42:30.219Z,55.90
2022-09-18T08:45:19.154Z,55.60
2022-09-18T08:47:59.548Z,56.10
2022-09-18T08:50:37.760Z,56.00
2022-09-18T08:53:25.735Z,56.40
2022-09-18T08:55:57.816Z,56.10
2022-09-18T08:58:46.647Z,56.50
2022-09-18T09:01:20.699Z,56.20
2022-09-18T09:04:17.803Z,57.20
2022-09-18T09:07:20.131Z,56.50
2022-09-18T09:10:34.342Z,57.00
2022-09-18T09:13:28.984Z,56.40
2022-09-18T09:16:09.106Z,56.70
2022-09-18T09:19:00.969Z,57.00
2022-09-18T09:21:58.878Z,56.70
2022-09-18T09:25:19.132Z,56.40
2022-09-18T09:28:00.457Z,56.70
2022-09-18T09:30:36.012Z,56.40
2022-09-18T09:33:20.853Z,56.50
2022-09-18T09:36:04.340Z,56.10
2022-09-18T09:38:40.600Z,56.40
2022-09-18T09:41:23.664Z,56.20
2022-09-18T09:44:22.578Z,56.20
2022-09-18T09:47:29.488Z,56.20
2022-09-18T09:50:09.069Z,56.10
2022-09-18T09:52:42.379Z,56.00
2022-09-18T09:55:30.907Z,56.00
2022-09-18T09:58:07.295Z,56.20
2022-09-18T10:01:02.046Z,55.90
2022-09-18T10:03:50.716Z,56.00
2022-09-18T10:06:36.382Z,55.60
2022-09-18T10:09:21.546Z,55.90
2022-09-18T10:12:15.804Z,55.70
2022-09-18T10:14:49.002Z,55.70
2022-09-18T10:17:21.874Z,56.00
2022-09-18T10:19:52.615Z,55.80
2022-09-18T10:22:25.288Z,55.90
2022-09-18T10:25:09.684Z,55.60
2022-09-18T10:27:39.996Z,55.70
2022-09-18T10:30:17.249Z,55.60
2022-09-18T10:32:47.527Z,55.50
2022-09-18T10:35:32.585Z,55.70
2022-09-18T10:38:02.740Z,55.10
2022-09-18T10:40:34.300Z,55.60
2022-09-18T10:43:05.840Z,55.60
2022-09-18T10:45:43.655Z,55.40
2022-09-18T10:48:22.157Z,55.40
2022-09-18T10:51:18.383Z,55.40
2022-09-18T10:54:01.608Z,55.60
2022-09-18T10:56:32.474Z,55.40
2022-09-18T10:59:33.119Z,55.40
2022-09-18T11:02:07.428Z,55.40
2022-09-18T11:04:37.851Z,55.40
2022-09-18T11:07:09.797Z,55.40
2022-09-18T11:09:42.232Z,55.40
2022-09-18T11:12:30.182Z,55.10
2022-09-18T11:15:09.354Z,54.90
2022-09-18T11:17:50.276Z,55.00
2022-09-18T11:20:35.814Z,55.00
2022-09-18T11:23:29.729Z,55.50
2022-09-18T11:26:23.115Z,55.10
2022-09-18T11:29:27.567Z,55.10
2022-09-18T11:32:41.792Z,55.20
2022-09-18T11:35:18.538Z,55.20
2022-09-18T11:38:09.587Z,55.40
2022-09-18T11:40:54.122Z,55.30
2022-09-18T11:43:31.761Z,55.30
2022-09-18T11:46:26.670Z,55.30
2022-09-18T11:49:11.647Z,55.10
2022-09-18T11:52:02.234Z,55.30
2022-09-18T11:54:46.110Z,55.20
2022-09-18T11:57:47.350Z,55.30
2022-09-18T12:00:27.079Z,55.20
2022-09-18T12:03:18.672Z,55.30
2022-09-18T12:05:59.789Z,55.30
2022-09-18T12:08:37.429Z,55.30
2022-09-18T12:11:19.274Z,55.30
2022-09-18T12:14:16.853Z,55.30
2022-09-18T12:16:52.142Z,55.30
2022-09-18T12:20:08.655Z,55.40
2022-09-18T12:22:58.807Z,55.30
2022-09-18T12:25:41.176Z,55.30
2022-09-18T12:28:20.093Z,55.30
2022-09-18T12:30:54.033Z,55.30
2022-09-18T12:33:40.003Z,55.40
2022-09-18T12:36:35.336Z,55.40
2022-09-18T12:39:27.054Z,55.30
2022-09-18T12:42:27.490Z,55.50
2022-09-18T12:45:30.362Z,55.40
2022-09-18T12:48:07.100Z,55.50
2022-09-18T12:50:52.180Z,55.60
2022-09-18T12:54:18.705Z,55.50
2022-09-18T12:57:13.047Z,55.40
2022-09-18T12:59:58.478Z,55.50
2022-09-18T13:02:50.566Z,55.60
2022-09-18T13:05:36.372Z,55.50
2022-09-18T13:08:13.689Z,55.60
2022-09-18T13:10:48.971Z,55.70
2022-09-18T13:13:40.166Z,55.60
2022-09-18T13:16:27.796Z,55.60
2022-09-18T13:19:12.271Z,55.60
2022-09-18T13:21:45.568Z,55.60
2022-09-18T13:24:30.271Z,55.60
2022-09-18T13:27:02.107Z,56.30
2022-09-18T13:29:53.492Z,55.70
2022-09-18T13:32:37.573Z,55.70
2022-09-18T13:35:21.342Z,55.80
2022-09-18T13:38:05.292Z,55.80
2022-09-18T13:40:41.197Z,56.00
2022-09-18T13:43:29.826Z,56.00
2022-09-18T13:46:06.669Z,56.10
2022-09-18T13:48:47.820Z,56.10
2022-09-18T13:51:30.703Z,56.20
2022-09-18T13:54:16.613Z,56.20
2022-09-18T13:57:22.418Z,56.20
2022-09-18T13:59:52.623Z,56.20
2022-09-18T14:02:51.505Z,56.30
2022-09-18T14:05:37.200Z,56.30
2022-09-18T14:08:39.480Z,56.30
2022-09-18T14:11:15.750Z,56.30
2022-09-18T14:13:55.557Z,56.40
2022-09-18T14:16:28.617Z,56.40
2022-09-18T14:19:03.705Z,56.30
2022-09-18T14:21:45.803Z,56.30
2022-09-18T14:24:26.891Z,56.20
2022-09-18T14:27:02.867Z,56.20
2022-09-18T14:29:35.131Z,56.30
2022-09-18T14:32:05.918Z,56.20
2022-09-18T14:34:44.575Z,56.20
2022-09-18T14:37:33.055Z,56.10
2022-09-18T14:40:03.562Z,56.00
2022-09-18T14:42:45.041Z,56.00
2022-09-18T14:45:15.284Z,55.90
2022-09-18T14:47:50.350Z,56.00
2022-09-18T14:50:39.249Z,56.50
2022-09-18T14:53:27.754Z,56.80
2022-09-18T14:56:10.005Z,56.90
2022-09-18T14:58:44.592Z,56.90
2022-09-18T15:01:26.775Z,56.80
2022-09-18T15:03:58.740Z,56.70
2022-09-18T15:06:35.447Z,56.80
2022-09-18T15:09:07.199Z,56.80
2022-09-18T15:12:00.924Z,56.70
2022-09-18T15:14:45.530Z,56.60
2022-09-18T15:17:32.638Z,56.70
2022-09-18T15:20:11.530Z,56.50
2022-09-18T15:22:41.722Z,56.60
2022-09-18T15:25:18.942Z,56.60
2022-09-18T15:27:50.249Z,56.40
2022-09-18T15:30:25.685Z,56.40
2022-09-18T15:33:06.102Z,56.40
2022-09-18T15:35:40.475Z,56.30
2022-09-18T15:41:22.539Z,56.20
2022-09-18T15:43:52.911Z,56.20
2022-09-18T15:46:30.533Z,56.20
2022-09-18T15:49:04.794Z,56.10
2022-09-18T15:51:40.198Z,56.00
2022-09-18T15:54:16.457Z,56.00
2022-09-18T15:57:00.859Z,56.00
2022-09-18T15:59:46.381Z,56.00
2022-09-18T16:02:37.225Z,55.90
2022-09-18T16:05:20.021Z,55.90
2022-09-18T16:08:41.683Z,55.90
2022-09-18T16:11:49.418Z,55.80
2022-09-18T16:14:41.953Z,55.90
2022-09-18T16:17:36.596Z,55.90
2022-09-18T16:20:33.438Z,55.90
2022-09-18T16:23:08.596Z,55.90
2022-09-18T16:25:42.936Z,56.00
2022-09-18T16:28:26.961Z,56.00
2022-09-18T16:30:57.358Z,55.90
2022-09-18T16:33:30.828Z,55.90
2022-09-18T16:36:05.802Z,55.90
2022-09-18T16:38:36.429Z,55.80
2022-09-18T16:41:06.723Z,55.90
2022-09-18T16:43:37.688Z,55.90
2022-09-18T16:46:08.031Z,55.90
2022-09-18T16:48:38.647Z,55.90
2022-09-18T16:51:09.277Z,55.80
2022-09-18T16:53:40.037Z,55.90
2022-09-18T16:56:14.534Z,55.80
2022-09-18T16:58:46.402Z,55.90
2022-09-18T17:01:17.238Z,55.80
2022-09-18T17:03:47.404Z,55.90
2022-09-18T17:06:18.986Z,55.80
2022-09-18T17:08:50.004Z,55.80
2022-09-18T17:11:20.310Z,55.90
2022-09-18T17:13:50.552Z,55.90
2022-09-18T17:16:41.241Z,55.90
2022-09-18T17:19:12.827Z,55.80
2022-09-18T17:21:43.654Z,55.90
2022-09-18T17:24:14.944Z,55.80
2022-09-18T17:26:45.210Z,55.80
2022-09-18T17:29:15.515Z,55.90
2022-09-18T17:31:46.416Z,55.90
2022-09-18T17:34:18.228Z,55.90
2022-09-18T17:36:48.737Z,55.80
2022-09-18T17:39:19.237Z,55.80
2022-09-18T17:41:49.801Z,55.80
2022-09-18T17:44:21.628Z,55.90
2022-09-18T17:46:54.257Z,55.90
2022-09-18T17:49:24.791Z,55.90
2022-09-18T17:51:54.948Z,55.90
2022-09-18T17:54:25.686Z,55.90
2022-09-18T17:56:57.318Z,55.80
2022-09-18T17:59:28.433Z,55.90
2022-09-18T18:01:58.686Z,55.90
2022-09-18T18:04:29.016Z,55.90
2022-09-18T18:06:59.157Z,55.90
2022-09-18T18:09:29.293Z,55.90
2022-09-18T18:11:59.878Z,55.90
2022-09-18T18:14:31.019Z,55.90
2022-09-18T18:17:02.428Z,55.90
2022-09-18T18:19:32.616Z,55.90
2022-09-18T18:22:02.758Z,55.90
2022-09-18T18:24:32.977Z,55.90
2022-09-18T18:27:03.111Z,55.90
2022-09-18T18:29:33.378Z,55.90
2022-09-18T18:32:03.612Z,55.90
2022-09-18T18:34:34.361Z,56.00
2022-09-18T18:37:06.993Z,56.00
2022-09-18T18:39:37.269Z,56.00
2022-09-18T18:42:07.673Z,56.00
2022-09-18T18:44:38.193Z,56.00
2022-09-18T18:47:08.479Z,56.00
2022-09-18T18:49:39.811Z,56.00
2022-09-18T18:52:09.964Z,56.10
2022-09-18T18:54:40.065Z,56.10
2022-09-18T18:57:10.810Z,56.10
2022-09-18T18:59:41.053Z,56.10
2022-09-18T19:02:14.609Z,56.00
2022-09-18T19:04:46.369Z,56.10
2022-09-18T19:07:16.496Z,56.10
2022-09-18T19:09:46.647Z,56.00
2022-09-18T19:12:18.965Z,56.10
2022-09-18T19:14:51.067Z,56.10
2022-09-18T19:17:21.377Z,56.00
2022-09-18T19:19:51.866Z,56.10
2022-09-18T19:22:22.288Z,56.10
2022-09-18T19:24:52.590Z,56.10
2022-09-18T19:27:22.918Z,56.20
2022-09-18T19:29:53.058Z,56.20
2022-09-18T19:32:23.821Z,56.10
2022-09-18T19:34:54.093Z,56.10
2022-09-18T19:37:24.248Z,56.20
2022-09-18T19:39:54.484Z,56.20
2022-09-18T19:42:29.659Z,56.20
2022-09-18T19:45:04.291Z,56.20
2022-09-18T19:47:48.819Z,56.20
2022-09-18T19:50:30.978Z,56.20
2022-09-18T19:53:01.524Z,56.30
2022-09-18T19:55:32.008Z,56.30
2022-09-18T19:58:03.289Z,56.30
2022-09-18T20:00:33.482Z,56.30
2022-09-18T20:03:03.823Z,56.30
2022-09-18T20:05:35.258Z,56.30
2022-09-18T20:08:08.207Z,56.30
2022-09-18T20:10:41.374Z,56.40
2022-09-18T20:13:12.919Z,56.30
2022-09-18T20:15:43.098Z,56.40
2022-09-18T20:18:13.456Z,56.40
2022-09-18T20:20:43.589Z,56.30
2022-09-18T20:23:13.803Z,56.40
2022-09-18T20:25:43.932Z,56.30
2022-09-18T20:28:14.132Z,56.30
2022-09-18T20:30:44.482Z,56.30
2022-09-18T20:33:14.818Z,56.30
2022-09-18T20:35:49.508Z,56.40
2022-09-18T20:38:32.288Z,56.40
2022-09-18T20:41:15.197Z,56.30
2022-09-18T20:43:46.238Z,56.50
2022-09-18T20:46:19.580Z,56.90
2022-09-18T20:48:57.854Z,57.10
2022-09-18T20:51:30.753Z,57.20
2022-09-18T20:54:01.776Z,57.30
2022-09-18T20:56:38.016Z,57.30
2022-09-18T20:59:09.262Z,57.40
2022-09-18T21:01:42.118Z,57.40
2022-09-18T21:04:21.222Z,57.40
2022-09-18T21:06:58.873Z,57.50
2022-09-18T21:09:32.508Z,57.50
2022-09-18T21:12:02.593Z,57.50
2022-09-18T21:14:33.203Z,57.50
2022-09-18T21:17:03.352Z,57.50
2022-09-18T21:19:33.646Z,57.50
2022-09-18T21:22:03.828Z,57.60
2022-09-18T21:24:34.420Z,57.80
2022-09-18T21:27:04.650Z,57.60
2022-09-18T21:29:34.850Z,57.60
2022-09-18T21:32:05.136Z,57.70
2022-09-18T21:34:35.899Z,57.70
2022-09-18T21:37:10.583Z,57.70
2022-09-18T21:39:41.166Z,57.70
2022-09-18T21:42:11.622Z,57.80
2022-09-18T21:44:41.840Z,57.80
2022-09-18T21:47:14.617Z,57.70
2022-09-18T21:49:45.611Z,57.80
2022-09-18T21:52:16.351Z,57.80
2022-09-18T21:54:46.488Z,57.80
2022-09-18T21:57:17.957Z,57.80
2022-09-18T21:59:49.018Z,57.70
2022-09-18T22:02:22.167Z,57.70
2022-09-18T22:04:52.420Z,57.70
2022-09-18T22:07:22.953Z,57.80
2022-09-18T22:09:53.870Z,57.80
2022-09-18T22:12:24.187Z,57.80
2022-09-18T22:14:54.267Z,57.80
2022-09-18T22:17:24.551Z,57.80
2022-09-18T22:19:54.726Z,57.80
2022-09-18T22:22:24.899Z,57.80
2022-09-18T22:24:55.067Z,57.80
2022-09-18T22:27:25.766Z,57.70
2022-09-18T22:29:55.857Z,57.60
2022-09-18T22:32:25.962Z,57.70
2022-09-18T22:34:56.182Z,57.60
2022-09-18T22:37:26.732Z,57.60
2022-09-18T22:39:57.019Z,57.60
2022-09-18T22:42:27.192Z,57.70
2022-09-18T22:44:57.499Z,57.70
2022-09-18T22:47:27.980Z,57.90
2022-09-18T22:49:58.095Z,58.00
2022-09-18T22:52:28.331Z,57.40
2022-09-18T22:54:58.559Z,57.30
2022-09-18T22:57:29.390Z,57.30
2022-09-18T22:59:59.537Z,57.40
2022-09-18T23:02:29.733Z,57.80
2022-09-18T23:05:00.631Z,57.80
2022-09-18T23:07:31.027Z,57.80
2022-09-18T23:10:01.222Z,57.70
2022-09-18T23:12:31.498Z,57.70
2022-09-18T23:15:01.584Z,58.00
2022-09-18T23:17:31.764Z,57.80
2022-09-18T23:20:01.972Z,57.90
2022-09-18T23:22:32.394Z,57.80
2022-09-18T23:25:03.884Z,57.70
2022-09-18T23:27:34.104Z,57.90
2022-09-18T23:30:04.331Z,57.70
2022-09-18T23:32:35.203Z,57.70
2022-09-18T23:35:05.778Z,57.60
2022-09-18T23:37:35.979Z,57.60
2022-09-18T23:40:06.399Z,57.80
2022-09-18T23:42:36.854Z,57.60
2022-09-18T23:45:07.701Z,57.80
2022-09-18T23:47:39.761Z,57.50
2022-09-18T23:50:10.237Z,57.60
2022-09-18T23:52:40.421Z,57.60
2022-09-18T23:55:10.789Z,57.60
2022-09-18T23:57:41.137Z,57.90
